Time;durP1;ratioP1;P1;durP2;ratioP2;P2;SDS_P1;SDS_P2;PMS_P1;PMS_P2;Temp;Humidity;BMP_temperature;BMP_pressure;BME280_temperature;BME280_humidity;BME280_pressure;Samples;Min_cycle;Max_cycle;Signal;HPM_P1;HPM_P2
2022/05/14 00:00:51;;;;;;;18.33;5.95;;;13.10;99.90;;;;;;4993938;28;20105;-69
2022/05/14 00:03:17;;;;;;;23.70;5.57;;;13.10;99.90;;;;;;4992528;28;20039;-69
2022/05/14 00:05:44;;;;;;;19.08;5.03;;;13.10;99.90;;;;;;4983932;28;20043;-70
2022/05/14 00:08:11;;;;;;;20.27;5.45;;;13.00;99.90;;;;;;4987953;28;20480;-69
2022/05/14 00:13:03;;;;;;;23.20;5.03;;;13.00;99.90;;;;;;4986012;28;20043;-70
2022/05/14 00:13:24;;;;;;;21.05;5.63;;;13.00;99.90;;;;;;4988231;28;20608;-70
2022/05/14 00:15:51;;;;;;;20.10;6.00;;;13.00;99.90;;;;;;4971880;28;20278;-69
2022/05/14 00:18:21;;;;;;;22.73;5.18;;;13.00;99.90;;;;;;4989585;28;20042;-70
2022/05/14 00:20:47;;;;;;;13.98;4.82;;;12.90;99.90;;;;;;4985715;28;20090;-70
2022/05/14 00:23:14;;;;;;;18.60;4.97;;;12.90;99.90;;;;;;4988653;28;20046;-69
2022/05/14 00:25:40;;;;;;;21.17;5.55;;;12.90;99.90;;;;;;4987418;28;20121;-69
2022/05/14 00:28:07;;;;;;;25.02;5.38;;;12.80;99.90;;;;;;4987966;28;20054;-69
2022/05/14 00:30:32;;;;;;;21.58;5.50;;;12.90;99.90;;;;;;4976130;28;20165;-69
2022/05/14 00:32:58;;;;;;;25.88;6.20;;;12.80;99.90;;;;;;4987066;28;20517;-70
2022/05/14 00:35:27;;;;;;;24.25;5.32;;;12.70;99.90;;;;;;4982373;28;20046;-69
2022/05/14 00:37:53;;;;;;;22.67;5.97;;;12.70;99.90;;;;;;4984788;28;20038;-70
2022/05/14 00:40:28;;;;;;;23.65;4.95;;;12.70;99.90;;;;;;4982774;28;20112;-70
2022/05/14 00:42:54;;;;;;;25.20;5.80;;;12.60;99.90;;;;;;4986189;28;20481;-69
2022/05/14 00:45:21;;;;;;;18.85;5.45;;;12.70;99.90;;;;;;4986885;28;20053;-70
2022/05/14 00:47:51;;;;;;;23.17;5.80;;;12.60;99.90;;;;;;4981669;28;20130;-69
2022/05/14 00:50:37;;;;;;;23.20;6.03;;;12.70;99.90;;;;;;4988421;28;20096;-71
2022/05/14 00:53:08;;;;;;;28.73;6.55;;;12.60;99.90;;;;;;4990693;28;20046;-70
2022/05/14 00:55:35;;;;;;;23.30;5.63;;;12.70;99.90;;;;;;4989583;28;20050;-70
2022/05/14 00:58:02;;;;;;;22.80;6.10;;;12.70;99.90;;;;;;4983813;28;20050;-70
2022/05/14 01:00:29;;;;;;;25.23;6.55;;;12.70;99.90;;;;;;4988527;28;20054;-71
2022/05/14 01:02:54;;;;;;;25.30;6.60;;;12.70;99.90;;;;;;5002238;28;20574;-71
2022/05/14 01:05:21;;;;;;;28.33;6.30;;;12.70;99.90;;;;;;4987351;28;20042;-70
2022/05/14 01:07:49;;;;;;;28.95;6.00;;;12.70;99.90;;;;;;4986867;28;20084;-70
2022/05/14 01:10:17;;;;;;;26.33;5.68;;;12.70;99.90;;;;;;4989319;28;20576;-69
2022/05/14 01:12:46;;;;;;;;;;;12.80;99.90;;;;;;4971709;28;20513;-69
2022/05/14 01:15:19;;;;;;;21.02;5.55;;;12.70;99.90;;;;;;4988335;28;19922;-70
2022/05/14 01:17:46;;;;;;;29.23;6.15;;;12.70;99.90;;;;;;4990493;28;20184;-69
2022/05/14 01:20:14;;;;;;;24.42;6.60;;;12.70;99.90;;;;;;4994964;28;20044;-70
2022/05/14 01:23:01;;;;;;;25.27;7.00;;;12.70;99.90;;;;;;4991039;28;20043;-71
2022/05/14 01:28:35;;;;;;;22.45;7.00;;;12.70;99.90;;;;;;4990230;28;20060;-70
2022/05/14 01:31:01;;;;;;;29.83;6.88;;;12.70;99.90;;;;;;4994013;28;20038;-69
2022/05/14 01:33:27;;;;;;;26.52;6.88;;;12.70;99.90;;;;;;4985332;28;20503;-68
2022/05/14 01:35:53;;;;;;;20.83;5.72;;;12.70;99.90;;;;;;4986723;28;20050;-71
2022/05/14 01:38:22;;;;;;;30.92;6.28;;;12.70;99.90;;;;;;4988608;28;20034;-69
2022/05/14 01:40:48;;;;;;;26.35;7.03;;;12.60;99.90;;;;;;4985197;28;20536;-70
2022/05/14 01:43:15;;;;;;;30.98;6.68;;;12.70;99.90;;;;;;4986569;28;20097;-70
2022/05/14 01:45:41;;;;;;;25.63;6.53;;;12.60;99.90;;;;;;4990834;28;20461;-69
2022/05/14 01:48:08;;;;;;;25.48;6.80;;;12.60;99.90;;;;;;4990120;28;20140;-71
2022/05/14 01:50:34;;;;;;;28.67;7.15;;;12.60;99.90;;;;;;4994961;28;20042;-70
2022/05/14 01:53:01;;;;;;;25.95;6.88;;;12.60;99.90;;;;;;4991145;28;20165;-70
2022/05/14 01:55:26;;;;;;;25.88;6.95;;;12.60;99.90;;;;;;4993576;28;20038;-71
2022/05/14 01:57:55;;;;;;;35.80;7.20;;;12.60;99.90;;;;;;4991118;28;20508;-68
2022/05/14 02:00:23;;;;;;;30.98;6.85;;;12.60;99.90;;;;;;4992349;28;20042;-70
2022/05/14 02:02:49;;;;;;;30.42;7.68;;;12.50;99.90;;;;;;4989314;28;20058;-70
2022/05/14 02:05:16;;;;;;;28.23;7.20;;;12.50;99.90;;;;;;4986581;28;20054;-70
2022/05/14 02:07:42;;;;;;;29.05;6.78;;;12.70;99.90;;;;;;4992891;28;20218;-70
2022/05/14 02:10:08;;;;;;;30.92;7.18;;;12.50;99.90;;;;;;4989963;28;20476;-69
2022/05/14 02:12:36;;;;;;;36.15;8.32;;;12.50;99.90;;;;;;4992093;28;20404;-69
2022/05/14 02:15:03;;;;;;;34.78;7.35;;;12.40;99.90;;;;;;4986563;28;20097;-70
2022/05/14 02:17:28;;;;;;;29.40;7.53;;;12.40;99.90;;;;;;4978278;28;20043;-70
2022/05/14 02:19:57;;;;;;;30.08;8.00;;;12.40;99.90;;;;;;4988935;28;20374;-70
2022/05/14 02:22:22;;;;;;;32.90;9.90;;;12.30;99.90;;;;;;4990026;28;20077;-70
2022/05/14 02:24:48;;;;;;;27.38;7.55;;;12.30;99.90;;;;;;4987529;28;20035;-70
2022/05/14 02:27:14;;;;;;;36.85;8.05;;;12.20;99.90;;;;;;4987796;28;20081;-70
2022/05/14 02:29:55;;;;;;;33.13;8.15;;;12.20;99.90;;;;;;4990829;28;20765;-71
2022/05/14 02:32:26;;;;;;;32.47;8.95;;;12.10;99.90;;;;;;4984843;28;20046;-69
2022/05/14 02:34:57;;;;;;;31.75;8.23;;;12.10;99.90;;;;;;4980629;28;20043;-71
2022/05/14 02:37:27;;;;;;;30.42;7.78;;;12.10;99.90;;;;;;4988407;28;20133;-70
2022/05/14 02:39:53;;;;;;;27.23;7.85;;;12.00;99.90;;;;;;4989763;28;20125;-68
2022/05/14 02:42:19;;;;;;;40.15;8.65;;;12.00;99.90;;;;;;4985195;28;20126;-70
2022/05/14 02:44:44;;;;;;;30.48;8.02;;;12.00;99.90;;;;;;4984802;28;20082;-70
2022/05/14 02:47:10;;;;;;;38.08;9.25;;;11.90;99.90;;;;;;4990854;28;20574;-70
2022/05/14 02:49:36;;;;;;;35.88;8.40;;;11.90;99.90;;;;;;4993873;28;20061;-69
2022/05/14 02:52:03;;;;;;;32.38;8.57;;;11.90;99.90;;;;;;4990185;28;20477;-69
2022/05/14 02:54:29;;;;;;;44.85;10.20;;;11.80;99.90;;;;;;4975390;28;20046;-69
2022/05/14 02:56:57;;;;;;;41.40;9.68;;;11.80;99.90;;;;;;5002038;28;20030;-70
2022/05/14 02:59:22;;;;;;;;;;;11.80;99.90;;;;;;4990050;28;20047;-70
2022/05/14 03:01:48;;;;;;;39.50;8.90;;;11.80;99.90;;;;;;4988843;28;20343;-69
2022/05/14 03:04:20;;;;;;;38.20;8.27;;;11.70;99.90;;;;;;4993544;28;20452;-70
2022/05/14 03:06:46;;;;;;;38.60;8.57;;;11.80;99.90;;;;;;4985950;28;20038;-69
2022/05/14 03:09:12;;;;;;;33.80;8.05;;;11.70;99.90;;;;;;4985897;28;20078;-70
2022/05/14 03:11:39;;;;;;;34.05;8.75;;;11.70;99.90;;;;;;4986916;28;20068;-70
2022/05/14 03:14:05;;;;;;;35.67;8.95;;;11.70;99.90;;;;;;4984716;28;20060;-71
2022/05/14 03:16:30;;;;;;;51.60;9.10;;;11.60;99.90;;;;;;4984120;28;20048;-70
2022/05/14 03:18:56;;;;;;;47.35;8.63;;;11.60;99.90;;;;;;4985907;28;20042;-69
2022/05/14 03:21:25;;;;;;;38.90;9.18;;;11.60;99.90;;;;;;4984375;28;20630;-69
2022/05/14 03:23:50;;;;;;;41.97;9.32;;;11.60;99.90;;;;;;4987490;28;20484;-69
2022/05/14 03:26:16;;;;;;;41.10;9.48;;;11.50;99.90;;;;;;4987138;28;20061;-69
2022/05/14 03:28:42;;;;;;;40.60;9.30;;;11.50;99.90;;;;;;4990005;28;20065;-69
2022/05/14 03:31:07;;;;;;;44.97;9.40;;;11.50;99.90;;;;;;4986844;28;20125;-71
2022/05/14 03:33:33;;;;;;;42.45;9.98;;;11.50;99.90;;;;;;4985086;28;20042;-70
2022/05/14 03:35:59;;;;;;;42.72;10.55;;;11.50;99.90;;;;;;4987176;28;20042;-69
2022/05/14 03:38:25;;;;;;;36.13;9.20;;;11.50;99.90;;;;;;4983350;28;20039;-70
2022/05/14 03:40:50;;;;;;;45.38;9.38;;;11.40;99.90;;;;;;4981339;28;20481;-69
2022/05/14 03:43:17;;;;;;;47.75;11.05;;;11.40;99.90;;;;;;4986798;28;20144;-70
2022/05/14 03:45:42;;;;;;;28.27;9.25;;;11.40;99.90;;;;;;4989467;28;20100;-70
2022/05/14 03:48:09;;;;;;;29.42;9.35;;;11.40;99.90;;;;;;4986092;28;20038;-71
2022/05/14 03:50:35;;;;;;;39.50;9.60;;;11.40;99.90;;;;;;4987532;28;20488;-70
2022/05/14 03:53:00;;;;;;;48.67;10.23;;;11.40;99.90;;;;;;4991725;28;20053;-70
2022/05/14 03:55:26;;;;;;;39.22;9.70;;;11.40;99.90;;;;;;4989332;28;20050;-71
2022/05/14 03:57:52;;;;;;;33.53;9.27;;;11.40;99.90;;;;;;4986443;28;20045;-71
2022/05/14 04:00:19;;;;;;;39.75;9.48;;;11.30;99.90;;;;;;4985744;28;20043;-69
2022/05/14 04:02:47;;;;;;;40.20;9.15;;;11.30;99.90;;;;;;4984185;28;20054;-70
2022/05/14 04:05:14;;;;;;;37.67;9.40;;;12.20;99.90;;;;;;4974270;28;20120;-70
2022/05/14 04:07:40;;;;;;;36.85;9.32;;;11.30;99.90;;;;;;4968573;28;20616;-70
2022/05/14 04:10:07;;;;;;;38.22;9.82;;;11.30;99.90;;;;;;4988899;28;20069;-71
2022/05/14 04:12:33;;;;;;;44.85;10.73;;;11.30;99.90;;;;;;4981518;28;20046;-69
2022/05/14 04:14:59;;;;;;;40.28;9.57;;;11.30;99.90;;;;;;4990717;28;20043;-70
2022/05/14 04:17:25;;;;;;;42.17;9.75;;;11.30;99.90;;;;;;4987839;28;20099;-71
2022/05/14 04:19:51;;;;;;;40.70;10.13;;;11.30;99.90;;;;;;4991821;28;20049;-72
2022/05/14 04:22:17;;;;;;;42.35;11.05;;;11.30;99.90;;;;;;4988683;28;20038;-70
2022/05/14 04:24:42;;;;;;;40.65;10.13;;;11.40;99.90;;;;;;4987816;28;20042;-71
2022/05/14 04:27:08;;;;;;;36.75;9.85;;;11.30;99.90;;;;;;4989451;28;20247;-70
2022/05/14 04:29:34;;;;;;;38.50;9.18;;;11.30;99.90;;;;;;4988250;28;20042;-70
2022/05/14 04:31:59;;;;;;;41.75;9.50;;;11.70;99.90;;;;;;4981908;28;21623;-70
2022/05/14 04:34:25;;;;;;;39.28;10.25;;;11.30;99.90;;;;;;4986424;28;20041;-70
2022/05/14 04:36:51;;;;;;;33.38;8.68;;;11.30;99.90;;;;;;4982922;28;20054;-71
2022/05/14 04:39:16;;;;;;;43.08;11.45;;;11.30;99.90;;;;;;4983896;28;20476;-71
2022/05/14 04:41:42;;;;;;;30.23;9.07;;;11.40;99.90;;;;;;4985336;28;20038;-69
2022/05/14 04:44:08;;;;;;;32.25;8.77;;;11.40;99.90;;;;;;4988884;28;20038;-71
2022/05/14 04:46:35;;;;;;;28.92;9.07;;;11.40;99.90;;;;;;4988865;28;20121;-71
2022/05/14 04:49:02;;;;;;;36.22;8.95;;;11.40;99.90;;;;;;4989392;28;20704;-70
2022/05/14 04:51:28;;;;;;;38.42;8.88;;;11.50;99.90;;;;;;4984720;28;20046;-70
2022/05/14 04:53:53;;;;;;;45.63;9.68;;;11.60;99.90;;;;;;4984336;28;20500;-70
2022/05/14 04:56:19;;;;;;;37.22;9.73;;;11.60;99.90;;;;;;4989464;28;20046;-70
2022/05/14 04:58:45;;;;;;;43.78;9.63;;;11.60;99.90;;;;;;4989224;28;20552;-70
2022/05/14 05:01:11;;;;;;;37.67;10.18;;;11.60;99.90;;;;;;4985087;28;20125;-69
2022/05/14 05:03:36;;;;;;;40.00;9.32;;;11.70;99.90;;;;;;4987669;28;20050;-69
2022/05/14 05:06:02;;;;;;;35.70;9.00;;;11.80;99.90;;;;;;4989371;28;20117;-69
2022/05/14 05:08:31;;;;;;;30.48;8.85;;;11.80;99.90;;;;;;4989644;28;20049;-70
2022/05/14 05:10:57;;;;;;;45.25;10.98;;;11.90;99.90;;;;;;4986972;28;20409;-71
2022/05/14 05:13:28;;;;;;;32.95;9.48;;;12.00;99.90;;;;;;4986461;28;20034;-71
2022/05/14 05:15:54;;;;;;;41.35;9.75;;;12.10;99.90;;;;;;4983544;28;20057;-71
2022/05/14 05:18:21;;;;;;;38.28;9.13;;;12.20;99.90;;;;;;4987877;28;20047;-70
2022/05/14 05:20:50;;;;;;;33.95;8.35;;;12.30;99.90;;;;;;4987733;28;20081;-69
2022/05/14 05:23:21;;;;;;;33.15;9.13;;;12.40;99.90;;;;;;4989100;28;20390;-69
2022/05/14 05:25:47;;;;;;;42.30;8.75;;;12.50;99.90;;;;;;4988805;28;20499;-71
2022/05/14 05:28:13;;;;;;;34.90;9.23;;;12.60;99.90;;;;;;4985104;28;20043;-70
2022/05/14 05:30:39;;;;;;;37.97;8.88;;;12.60;99.90;;;;;;4986249;28;20117;-70
2022/05/14 05:33:10;;;;;;;39.20;9.85;;;12.70;99.90;;;;;;4986859;28;20038;-71
2022/05/14 05:35:36;;;;;;;37.58;8.82;;;12.90;99.90;;;;;;4985872;28;20129;-70
2022/05/14 05:38:01;;;;;;;34.72;8.50;;;12.90;99.90;;;;;;4984369;28;20133;-69
2022/05/14 05:40:27;;;;;;;37.55;8.75;;;12.90;99.90;;;;;;4983091;28;20173;-70
2022/05/14 05:42:53;;;;;;;34.97;8.02;;;12.80;99.90;;;;;;5004872;28;20057;-70
2022/05/14 05:45:19;;;;;;;39.90;8.60;;;12.80;99.90;;;;;;4989321;28;20054;-70
2022/05/14 05:47:48;;;;;;;35.17;9.20;;;13.00;99.90;;;;;;4985973;28;20102;-70
2022/05/14 05:50:13;;;;;;;31.85;7.60;;;13.20;99.90;;;;;;4988409;28;20125;-70
2022/05/14 05:52:39;;;;;;;30.50;7.43;;;13.30;99.90;;;;;;4986057;28;20124;-70
2022/05/14 05:57:49;;;;;;;33.45;7.72;;;13.60;99.90;;;;;;4989696;28;20050;-69
2022/05/14 06:00:23;;;;;;;24.88;6.80;;;13.90;99.90;;;;;;4988378;28;20041;-70
2022/05/14 06:02:49;;;;;;;28.65;7.00;;;14.00;99.90;;;;;;4990375;28;20509;-71
2022/05/14 06:05:15;;;;;;;37.78;7.15;;;14.10;99.90;;;;;;4989181;28;20042;-70
2022/05/14 06:07:42;;;;;;;29.35;7.10;;;14.20;99.90;;;;;;4990026;28;20042;-69
2022/05/14 06:10:10;;;;;;;28.52;6.78;;;14.30;99.90;;;;;;4991431;28;20080;-70
2022/05/14 06:12:38;;;;;;;30.45;8.18;;;14.30;99.90;;;;;;4988859;28;20121;-70
2022/05/14 06:15:09;;;;;;;26.48;6.15;;;14.40;99.90;;;;;;4991452;28;20077;-69
2022/05/14 06:17:35;;;;;;;23.98;6.90;;;14.50;99.90;;;;;;4989878;28;20050;-70
2022/05/14 06:20:02;;;;;;;24.58;6.55;;;14.60;99.90;;;;;;4991852;28;20042;-71
2022/05/14 06:22:28;;;;;;;31.48;6.53;;;14.60;99.90;;;;;;4989467;28;20408;-70
2022/05/14 06:24:53;;;;;;;26.08;6.43;;;14.60;99.90;;;;;;4987118;28;20038;-70
2022/05/14 06:27:20;;;;;;;30.55;6.53;;;14.70;99.90;;;;;;4991199;28;20045;-69
2022/05/14 06:29:46;;;;;;;27.65;6.30;;;14.80;99.90;;;;;;4987417;28;20046;-70
2022/05/14 06:32:11;;;;;;;31.13;6.82;;;14.90;99.90;;;;;;4995170;28;20050;-72
2022/05/14 06:34:37;;;;;;;21.30;5.43;;;15.00;99.90;;;;;;4990799;28;20106;-70
2022/05/14 06:37:03;;;;;;;29.85;6.95;;;15.10;99.90;;;;;;4983539;28;20042;-71
2022/05/14 06:39:29;;;;;;;26.45;6.47;;;15.30;99.90;;;;;;4985199;28;20450;-71
2022/05/14 06:41:56;;;;;;;21.83;5.47;;;15.30;99.90;;;;;;4987850;28;20046;-68
2022/05/14 06:44:21;;;;;;;27.88;6.22;;;15.40;99.90;;;;;;4988317;28;20492;-70
2022/05/14 06:46:47;;;;;;;24.23;5.88;;;15.50;99.90;;;;;;4985187;28;20034;-70
2022/05/14 06:49:13;;;;;;;29.98;5.60;;;15.50;99.90;;;;;;4987321;28;20034;-70
2022/05/14 06:51:40;;;;;;;33.17;6.82;;;15.50;99.90;;;;;;4987377;28;20047;-71
2022/05/14 06:54:08;;;;;;;24.30;6.10;;;15.60;99.90;;;;;;4988343;28;20050;-72
2022/05/14 06:56:39;;;;;;;21.73;5.57;;;15.70;99.90;;;;;;4992718;28;20401;-71
2022/05/14 06:59:05;;;;;;;28.40;5.80;;;15.80;99.90;;;;;;4990146;28;20073;-68
2022/05/14 07:01:31;;;;;;;28.10;6.38;;;15.90;99.90;;;;;;4987176;28;20887;-69
2022/05/14 07:06:48;;;;;;;22.73;5.47;;;16.00;99.90;;;;;;4993216;28;20054;-69
2022/05/14 07:09:24;;;;;;;26.33;6.57;;;16.10;99.90;;;;;;4983721;28;20412;-70
2022/05/14 07:11:52;;;;;;;24.48;5.72;;;16.20;99.90;;;;;;4989620;28;20042;-70
2022/05/14 07:14:17;;;;;;;26.63;6.13;;;16.20;99.90;;;;;;4993629;28;20486;-71
2022/05/14 07:16:45;;;;;;;18.75;5.20;;;16.30;99.90;;;;;;4993195;28;20130;-70
2022/05/14 07:19:11;;;;;;;30.73;5.63;;;16.30;99.90;;;;;;4992152;28;20041;-70
2022/05/14 07:21:38;;;;;;;23.60;4.93;;;16.40;99.90;;;;;;4989629;28;20092;-71
2022/05/14 07:24:07;;;;;;;18.45;4.65;;;16.50;99.90;;;;;;4989798;28;20469;-70
2022/05/14 07:26:37;;;;;;;24.42;5.20;;;16.50;99.90;;;;;;4984286;28;20059;-70
2022/05/14 07:29:09;;;;;;;21.63;5.50;;;16.60;99.90;;;;;;4987251;28;20405;-72
2022/05/14 07:31:35;;;;;;;20.50;4.82;;;16.70;99.90;;;;;;4974829;28;20046;-70
2022/05/14 07:34:02;;;;;;;19.77;4.93;;;16.60;99.90;;;;;;4989153;28;20078;-70
2022/05/14 07:36:32;;;;;;;17.08;4.68;;;16.80;99.90;;;;;;4990510;28;20050;-70
2022/05/14 07:39:01;;;;;;;23.48;4.93;;;16.90;99.90;;;;;;4989075;28;20042;-70
2022/05/14 07:41:28;;;;;;;18.95;4.75;;;17.00;99.90;;;;;;4987302;28;20046;-71
2022/05/14 07:43:57;;;;;;;23.80;5.27;;;16.90;99.90;;;;;;4991038;28;20066;-71
2022/05/14 07:46:30;;;;;;;17.55;4.68;;;17.00;99.90;;;;;;4983887;28;20080;-69
2022/05/14 07:48:58;;;;;;;16.38;4.32;;;17.20;99.90;;;;;;4990904;28;20057;-71
2022/05/14 07:51:25;;;;;;;21.95;4.70;;;17.30;99.90;;;;;;4989981;28;20039;-70
2022/05/14 07:53:52;;;;;;;20.85;4.60;;;17.50;99.90;;;;;;4990248;28;20077;-70
2022/05/14 07:56:18;;;;;;;24.25;4.22;;;17.60;99.90;;;;;;4991138;28;20039;-70
2022/05/14 07:58:44;;;;;;;17.83;3.88;;;17.70;99.60;;;;;;4989381;28;20624;-69
2022/05/14 08:01:11;;;;;;;18.00;4.68;;;17.50;99.70;;;;;;4991269;28;20055;-70
2022/05/14 08:03:37;;;;;;;18.15;4.50;;;17.60;99.70;;;;;;4988774;28;20484;-69
2022/05/14 08:06:04;;;;;;;19.88;4.63;;;17.60;98.80;;;;;;4989167;28;20392;-72
2022/05/14 08:08:32;;;;;;;18.33;4.65;;;17.70;99.20;;;;;;4981486;28;20053;-70
2022/05/14 08:10:58;;;;;;;24.52;5.00;;;17.70;99.00;;;;;;4992801;28;20034;-70
2022/05/14 08:13:25;;;;;;;17.45;4.78;;;17.70;99.80;;;;;;4991134;28;20146;-69
2022/05/14 08:15:52;;;;;;;22.23;4.70;;;18.20;99.90;;;;;;4989659;28;20057;-71
2022/05/14 08:18:18;;;;;;;17.80;5.13;;;18.00;99.90;;;;;;4982812;28;20305;-71
2022/05/14 08:20:46;;;;;;;18.27;4.68;;;18.40;99.50;;;;;;4992833;28;20082;-69
2022/05/14 08:25:59;;;;;;;21.42;4.97;;;18.10;99.60;;;;;;4989392;28;20133;-70
2022/05/14 08:28:28;;;;;;;22.38;5.00;;;18.30;99.50;;;;;;4963428;28;20041;-70
2022/05/14 08:30:57;;;;;;;18.88;4.47;;;18.40;99.10;;;;;;4990944;28;20042;-69
2022/05/14 08:33:23;;;;;;;21.35;4.50;;;18.60;99.60;;;;;;4998751;28;20046;-69
2022/05/14 08:35:49;;;;;;;20.73;4.78;;;18.90;98.80;;;;;;4976057;28;20096;-70
2022/05/14 08:38:17;;;;;;;23.70;4.90;;;18.80;98.70;;;;;;4993262;28;20092;-70
2022/05/14 08:40:48;;;;;;;22.40;5.53;;;18.90;98.90;;;;;;4991734;28;20070;-70
2022/05/14 08:43:21;;;;;;;23.95;5.32;;;19.00;98.90;;;;;;4984226;28;20077;-69
2022/05/14 08:45:47;;;;;;;22.65;5.47;;;19.20;96.50;;;;;;4992271;28;20531;-71
2022/05/14 08:48:17;;;;;;;20.70;4.80;;;19.10;96.80;;;;;;4989801;28;20062;-69
2022/05/14 08:50:49;;;;;;;18.55;5.07;;;19.20;96.50;;;;;;4992626;28;20038;-70
2022/05/14 08:53:26;;;;;;;23.25;5.43;;;19.20;96.60;;;;;;4989728;28;20097;-69
2022/05/14 08:56:25;;;;;;;23.00;5.15;;;19.40;97.10;;;;;;5006897;28;20077;-69
2022/05/14 08:58:56;;;;;;;21.02;4.97;;;19.30;96.90;;;;;;4991587;28;20082;-70
2022/05/14 09:01:25;;;;;;;18.20;6.38;;;19.40;96.80;;;;;;4986905;28;20050;-70
2022/05/14 09:03:50;;;;;;;17.00;5.00;;;19.40;96.30;;;;;;4989553;28;20047;-72
2022/05/14 09:06:17;;;;;;;21.52;5.28;;;19.60;96.80;;;;;;4992251;28;20038;-70
2022/05/14 09:08:42;;;;;;;21.35;4.60;;;19.80;96.90;;;;;;4986559;28;20169;-70
2022/05/14 09:11:21;;;;;;;22.45;5.13;;;19.90;95.10;;;;;;4992035;28;20117;-70
2022/05/14 09:13:55;;;;;;;21.25;4.55;;;19.70;94.50;;;;;;4989701;28;20069;-71
2022/05/14 09:16:31;;;;;;;25.45;4.75;;;19.70;94.40;;;;;;4990804;28;20050;-70
2022/05/14 09:18:58;;;;;;;19.65;4.95;;;19.60;94.10;;;;;;4986520;28;20082;-70
2022/05/14 09:21:30;;;;;;;16.77;5.00;;;19.80;95.60;;;;;;4991604;28;20121;-70
2022/05/14 09:24:13;;;;;;;20.60;5.53;;;19.90;94.50;;;;;;4989418;28;20045;-70
2022/05/14 09:26:41;;;;;;;21.80;5.47;;;20.00;93.30;;;;;;4986182;28;20050;-69
2022/05/14 09:29:14;;;;;;;20.30;4.78;;;19.80;93.70;;;;;;4988869;28;20042;-69
2022/05/14 09:31:52;;;;;;;21.15;5.07;;;19.80;94.30;;;;;;4984813;28;20042;-71
2022/05/14 09:34:19;;;;;;;19.42;4.95;;;19.90;95.20;;;;;;4990900;28;20034;-69
2022/05/14 09:36:48;;;;;;;16.53;4.70;;;20.00;93.50;;;;;;5000287;28;20038;-70
2022/05/14 09:39:22;;;;;;;20.38;4.93;;;19.90;92.40;;;;;;4997088;28;20043;-69
2022/05/14 09:41:58;;;;;;;17.92;4.38;;;19.60;93.80;;;;;;4985848;28;20101;-71
2022/05/14 09:44:40;;;;;;;22.15;5.25;;;19.70;94.30;;;;;;4987245;28;20048;-68
2022/05/14 09:47:10;;;;;;;20.70;5.28;;;19.70;93.60;;;;;;4989090;28;20041;-69
2022/05/14 09:49:39;;;;;;;20.38;5.43;;;19.50;93.80;;;;;;4992473;28;20042;-70
2022/05/14 09:52:11;;;;;;;19.33;4.93;;;19.40;94.30;;;;;;4993322;28;20047;-69
2022/05/14 09:54:48;;;;;;;20.02;4.95;;;19.40;93.90;;;;;;4995986;28;20043;-70
2022/05/14 09:57:16;;;;;;;21.15;4.70;;;19.40;93.10;;;;;;4994452;28;20042;-69
2022/05/14 10:00:01;;;;;;;18.40;5.30;;;19.50;92.60;;;;;;4993095;28;20042;-69
2022/05/14 10:02:35;;;;;;;21.73;5.18;;;19.50;93.10;;;;;;4992130;28;20115;-69
2022/05/14 10:05:18;;;;;;;20.02;4.82;;;19.70;93.30;;;;;;4992412;28;20062;-69
2022/05/14 10:08:21;;;;;;;26.25;5.43;;;19.90;94.00;;;;;;4990672;28;20047;-69
2022/05/14 10:11:00;;;;;;;22.15;5.50;;;20.30;93.30;;;;;;4979700;28;20575;-69
2022/05/14 10:13:34;;;;;;;17.13;4.80;;;20.70;92.50;;;;;;4991439;28;20061;-69
2022/05/14 10:16:07;;;;;;;20.83;5.80;;;20.90;93.40;;;;;;4993203;28;20093;-69
2022/05/14 10:18:57;;;;;;;20.17;5.18;;;21.40;91.60;;;;;;4993500;28;20048;-69
2022/05/14 10:21:43;;;;;;;20.33;5.68;;;21.60;91.50;;;;;;4995180;28;20054;-69
2022/05/14 10:27:27;;;;;;;20.08;5.38;;;21.70;91.60;;;;;;4995147;28;20503;-69
2022/05/14 10:30:16;;;;;;;22.35;5.30;;;22.00;88.30;;;;;;4994897;28;20054;-70
2022/05/14 10:32:43;;;;;;;21.60;5.22;;;22.20;86.90;;;;;;4987525;28;20046;-70
2022/05/14 10:35:22;;;;;;;18.38;4.82;;;22.00;83.90;;;;;;4994566;28;20057;-69
2022/05/14 10:37:53;;;;;;;26.90;5.68;;;21.60;84.00;;;;;;4992608;28;20089;-70
2022/05/14 10:40:34;;;;;;;23.15;5.13;;;21.20;82.30;;;;;;4994530;28;20050;-69
2022/05/14 10:43:27;;;;;;;17.65;5.07;;;20.90;84.20;;;;;;4974927;28;20505;-68
2022/05/14 10:45:56;;;;;;;23.55;5.95;;;20.90;86.70;;;;;;4981870;28;20125;-69
2022/05/14 10:48:56;;;;;;;22.08;5.47;;;21.10;85.40;;;;;;4985985;28;20399;-70
2022/05/14 10:51:29;;;;;;;18.05;4.68;;;21.40;85.40;;;;;;4995743;28;20039;-69
2022/05/14 10:53:58;;;;;;;17.50;5.15;;;21.90;87.60;;;;;;4994356;28;20404;-69
2022/05/14 10:56:33;;;;;;;21.20;4.88;;;22.50;85.90;;;;;;4990572;28;20618;-69
2022/05/14 10:59:09;;;;;;;14.95;4.45;;;22.90;84.20;;;;;;5000992;28;20054;-67
2022/05/14 11:01:52;;;;;;;19.17;4.85;;;23.30;78.30;;;;;;4990711;28;20042;-69
2022/05/14 11:04:30;;;;;;;17.20;4.93;;;23.10;77.70;;;;;;4983875;28;20038;-69
2022/05/14 11:07:01;;;;;;;19.08;4.55;;;23.00;75.00;;;;;;4989263;28;20050;-69
2022/05/14 11:09:45;;;;;;;21.48;5.50;;;23.00;75.30;;;;;;4992343;28;20061;-68
2022/05/14 11:12:19;;;;;;;20.70;5.45;;;22.70;75.60;;;;;;4984613;28;20485;-68
2022/05/14 11:14:49;;;;;;;19.23;4.82;;;22.30;76.40;;;;;;4993330;28;20054;-69
2022/05/14 11:17:29;;;;;;;20.67;5.28;;;21.80;75.00;;;;;;4983588;28;20097;-68
2022/05/14 11:20:04;;;;;;;21.38;4.85;;;21.60;77.50;;;;;;4997885;28;20436;-69
2022/05/14 11:22:40;;;;;;;21.67;4.97;;;21.70;78.30;;;;;;4995007;28;20038;-69
2022/05/14 11:25:21;;;;;;;22.50;5.75;;;21.90;80.50;;;;;;4990065;28;20054;-68
2022/05/14 11:28:08;;;;;;;19.23;4.93;;;22.40;77.30;;;;;;4990997;28;20046;-69
2022/05/14 11:30:39;;;;;;;23.88;5.68;;;22.60;74.10;;;;;;4985248;28;20038;-69
2022/05/14 11:33:22;;;;;;;20.70;5.90;;;22.30;76.40;;;;;;4994071;28;20042;-69
2022/05/14 11:35:49;;;;;;;18.10;5.05;;;22.30;74.60;;;;;;4990224;28;20046;-71
2022/05/14 11:38:23;;;;;;;24.80;5.78;;;22.30;74.80;;;;;;5009552;28;20042;-70
2022/05/14 11:41:29;;;;;;;19.60;5.22;;;22.50;76.90;;;;;;4989860;28;20043;-69
2022/05/14 11:43:55;;;;;;;21.83;5.40;;;23.20;79.80;;;;;;5007713;28;20128;-69
2022/05/14 11:46:45;;;;;;;21.25;6.03;;;23.60;77.20;;;;;;4991585;28;20046;-70
2022/05/14 11:49:26;;;;;;;18.50;5.25;;;24.20;75.30;;;;;;4972622;28;20035;-68
2022/05/14 11:52:16;;;;;;;18.40;4.70;;;24.20;71.20;;;;;;4991133;28;20489;-70
2022/05/14 11:54:51;;;;;;;18.63;5.57;;;23.80;71.30;;;;;;4975384;28;20134;-69
2022/05/14 11:57:29;;;;;;;19.58;5.15;;;23.80;72.40;;;;;;4991485;28;20045;-69
2022/05/14 11:59:59;;;;;;;24.87;5.87;;;23.80;71.10;;;;;;4983323;28;20049;-70
2022/05/14 12:02:44;;;;;;;20.85;5.60;;;23.50;71.90;;;;;;4983160;28;20317;-69
2022/05/14 12:05:28;;;;;;;24.75;6.15;;;23.30;69.30;;;;;;4988127;28;20074;-69
2022/05/14 12:08:20;;;;;;;18.25;5.20;;;22.70;70.50;;;;;;4988347;28;20035;-70
2022/05/14 12:11:02;;;;;;;25.42;5.25;;;22.50;71.20;;;;;;5012304;28;20069;-69
2022/05/14 12:14:04;;;;;;;22.30;5.70;;;22.40;72.10;;;;;;4991664;28;20364;-71
2022/05/14 12:16:36;;;;;;;23.45;5.63;;;22.50;72.60;;;;;;4987680;28;20503;-69
2022/05/14 12:19:05;;;;;;;21.90;5.38;;;22.60;75.30;;;;;;4990229;28;20056;-70
2022/05/14 12:21:34;;;;;;;27.35;5.85;;;23.00;72.60;;;;;;4987661;28;20544;-68
2022/05/14 12:24:01;;;;;;;17.08;5.00;;;23.50;71.00;;;;;;4991567;28;20061;-71
2022/05/14 12:26:28;;;;;;;20.98;5.60;;;24.00;72.80;;;;;;4992596;28;20049;-71
2022/05/14 12:28:57;;;;;;;18.92;4.90;;;24.30;73.20;;;;;;5008352;28;20465;-69
2022/05/14 12:34:16;;;;;;;21.45;4.97;;;23.80;69.20;;;;;;4983036;28;20050;-69
2022/05/14 12:36:53;;;;;;;16.45;5.38;;;23.50;69.70;;;;;;4986283;28;20776;-69
2022/05/14 12:39:25;;;;;;;18.83;5.50;;;23.60;72.40;;;;;;4985173;28;20049;-71
2022/05/14 12:41:54;;;;;;;20.85;5.20;;;24.10;70.90;;;;;;4985859;28;20050;-70
2022/05/14 12:44:34;;;;;;;22.05;5.90;;;24.40;71.40;;;;;;4990905;28;20047;-71
2022/05/14 12:47:03;;;;;;;19.52;5.25;;;24.80;67.50;;;;;;4989442;28;20097;-70
2022/05/14 12:49:46;;;;;;;15.85;5.00;;;24.80;66.50;;;;;;5006881;28;20042;-70
2022/05/14 12:52:15;;;;;;;25.40;5.05;;;25.00;65.70;;;;;;4986653;28;20046;-69
2022/05/14 12:54:58;;;;;;;20.38;5.05;;;25.10;63.40;;;;;;4982244;28;20460;-68
2022/05/14 12:57:26;;;;;;;15.77;5.25;;;24.80;65.10;;;;;;4990656;28;20432;-68
2022/05/14 12:59:53;;;;;;;19.15;5.50;;;24.30;65.60;;;;;;4986466;28;21582;-68
2022/05/14 13:02:33;;;;;;;21.50;5.78;;;24.10;67.30;;;;;;4988231;28;20081;-69
2022/05/14 13:05:13;;;;;;;22.73;5.80;;;24.20;69.10;;;;;;4984424;28;20472;-68
2022/05/14 13:07:56;;;;;;;21.95;5.47;;;24.10;65.70;;;;;;4992272;28;20627;-69
2022/05/14 13:10:25;;;;;;;38.15;5.80;;;23.80;68.40;;;;;;4989652;28;20047;-69